createdAt,value
2018-06-04T00:01:55.250Z,34.37
2018-06-04T00:04:22.658Z,33.33
2018-06-04T00:06:50.050Z,31.27
2018-06-04T00:09:17.632Z,31.07
2018-06-04T00:11:45.074Z,35.03
2018-06-04T00:14:12.461Z,30.23
2018-06-04T00:16:39.887Z,31.57
2018-06-04T00:19:07.307Z,25.40
2018-06-04T00:21:34.709Z,28.90
2018-06-04T00:24:02.097Z,26.97
2018-06-04T00:26:29.490Z,30.83
2018-06-04T00:28:56.886Z,29.37
2018-06-04T00:31:24.260Z,26.67
2018-06-04T00:33:51.635Z,23.57
2018-06-04T00:36:19.037Z,25.90
2018-06-04T00:38:46.416Z,29.73
2018-06-04T00:41:13.785Z,24.73
2018-06-04T00:43:41.183Z,28.77
2018-06-04T00:46:08.584Z,24.47
2018-06-04T00:48:37.090Z,24.70
2018-06-04T00:51:04.482Z,26.97
2018-06-04T00:53:32.038Z,25.50
2018-06-04T00:56:11.080Z,26.30
2018-06-04T00:58:38.485Z,27.10
2018-06-04T01:01:05.893Z,27.50
2018-06-04T01:03:33.301Z,27.30
2018-06-04T01:06:00.681Z,25.97
2018-06-04T01:08:28.041Z,25.93
2018-06-04T01:10:55.435Z,32.03
2018-06-04T01:13:22.838Z,30.47
2018-06-04T01:15:50.244Z,29.53
2018-06-04T01:18:17.638Z,22.33
2018-06-04T01:20:45.034Z,23.90
2018-06-04T01:23:12.429Z,28.83
2018-06-04T01:25:39.811Z,24.90
2018-06-04T01:28:07.245Z,21.93
2018-06-04T01:30:34.630Z,23.23
2018-06-04T01:33:02.014Z,21.63
2018-06-04T01:35:29.402Z,25.93
2018-06-04T01:37:56.772Z,25.90
2018-06-04T01:40:24.191Z,32.70
2018-06-04T01:42:51.561Z,34.20
2018-06-04T01:45:18.941Z,39.07
2018-06-04T01:47:46.336Z,40.57
2018-06-04T01:50:13.731Z,33.70
2018-06-04T01:52:41.146Z,40.67
2018-06-04T01:55:08.541Z,42.40
2018-06-04T01:57:35.970Z,41.30
2018-06-04T02:00:03.528Z,42.17
2018-06-04T02:02:30.901Z,34.73
2018-06-04T02:04:58.292Z,38.97
2018-06-04T02:07:25.652Z,36.80
2018-06-04T02:09:53.073Z,36.57
2018-06-04T02:12:20.470Z,36.73
2018-06-04T02:14:48.054Z,37.00
2018-06-04T02:17:15.433Z,35.30
2018-06-04T02:19:42.837Z,46.37
2018-06-04T02:22:10.543Z,46.60
2018-06-04T02:24:37.922Z,41.83
2018-06-04T02:27:05.321Z,41.77
2018-06-04T02:29:32.769Z,44.50
2018-06-04T02:32:00.198Z,38.83
2018-06-04T02:34:27.586Z,37.20
2018-06-04T02:36:54.952Z,36.07
2018-06-04T02:39:22.341Z,32.17
2018-06-04T02:41:49.733Z,31.33
2018-06-04T02:44:17.145Z,31.03
2018-06-04T02:46:44.550Z,32.33
2018-06-04T02:49:11.947Z,31.63
2018-06-04T02:51:39.343Z,29.90
2018-06-04T02:54:06.734Z,26.97
2018-06-04T02:56:34.093Z,27.77
2018-06-04T02:59:01.483Z,27.83
2018-06-04T03:01:28.865Z,28.93
2018-06-04T03:03:56.248Z,27.70
2018-06-04T03:06:23.662Z,26.97
2018-06-04T03:08:51.065Z,26.77
2018-06-04T03:11:18.461Z,25.17
2018-06-04T03:13:46.059Z,25.87
2018-06-04T03:16:13.458Z,24.33
2018-06-04T03:18:40.845Z,24.13
2018-06-04T03:21:08.213Z,22.40
2018-06-04T03:23:35.628Z,24.33
2018-06-04T03:26:02.987Z,21.43
2018-06-04T03:28:30.389Z,21.93
2018-06-04T03:30:57.786Z,22.73
2018-06-04T03:33:25.177Z,20.83
2018-06-04T03:35:52.564Z,21.40
2018-06-04T03:38:19.953Z,22.03
2018-06-04T03:40:47.341Z,20.50
2018-06-04T03:43:14.709Z,20.23
2018-06-04T03:45:42.097Z,18.83
2018-06-04T03:48:09.489Z,19.53
2018-06-04T03:50:36.870Z,16.50
2018-06-04T03:53:04.249Z,19.43
2018-06-04T03:55:31.627Z,18.67
2018-06-04T03:57:59.029Z,16.63
2018-06-04T04:00:26.400Z,15.67
2018-06-04T04:02:53.865Z,17.67
2018-06-04T04:05:21.272Z,14.40
2018-06-04T04:07:48.632Z,15.23
2018-06-04T04:10:16.030Z,17.47
2018-06-04T04:12:43.394Z,15.77
2018-06-04T04:15:10.789Z,15.10
2018-06-04T04:17:38.178Z,16.67
2018-06-04T04:20:05.782Z,16.77
2018-06-04T04:22:33.144Z,16.80
2018-06-04T04:25:00.535Z,15.53
2018-06-04T04:27:27.917Z,15.97
2018-06-04T04:29:55.305Z,14.70
2018-06-04T04:32:22.693Z,14.47
2018-06-04T04:34:50.040Z,14.23
2018-06-04T04:37:17.441Z,14.30
2018-06-04T04:39:44.821Z,13.97
2018-06-04T04:42:12.208Z,12.13
2018-06-04T04:44:39.611Z,12.90
2018-06-04T04:47:06.997Z,11.67
2018-06-04T04:49:34.366Z,13.23
2018-06-04T04:52:01.918Z,12.30
2018-06-04T04:54:29.328Z,10.10
2018-06-04T04:56:56.715Z,10.83
2018-06-04T04:59:24.111Z,8.90
2018-06-04T05:01:51.517Z,10.60
2018-06-04T05:04:18.893Z,11.70
2018-06-04T05:06:46.298Z,12.00
2018-06-04T05:09:13.666Z,12.33
2018-06-04T05:11:41.049Z,11.60
2018-06-04T05:14:08.439Z,9.87
2018-06-04T05:16:35.816Z,10.73
2018-06-04T05:19:03.275Z,10.97
2018-06-04T05:21:30.671Z,8.67
2018-06-04T05:23:58.185Z,11.60
2018-06-04T05:26:25.590Z,12.03
2018-06-04T05:28:52.985Z,11.43
2018-06-04T05:31:20.399Z,11.50
2018-06-04T05:33:47.784Z,9.83
2018-06-04T05:36:15.172Z,11.67
2018-06-04T05:38:42.548Z,12.00
2018-06-04T05:41:09.946Z,10.33
2018-06-04T05:43:37.366Z,10.83
2018-06-04T05:46:04.950Z,11.00
2018-06-04T05:48:32.337Z,11.30
2018-06-04T05:50:59.717Z,10.87
2018-06-04T05:53:27.206Z,10.73
2018-06-04T05:55:54.597Z,11.20
2018-06-04T05:58:22.041Z,10.70
2018-06-04T06:00:49.433Z,11.17
2018-06-04T06:03:16.814Z,10.63
2018-06-04T06:05:44.224Z,10.83
2018-06-04T06:08:11.621Z,10.70
2018-06-04T06:10:39.030Z,10.67
2018-06-04T06:13:06.437Z,9.40
2018-06-04T06:15:33.815Z,10.27
2018-06-04T06:18:01.210Z,9.33
2018-06-04T06:20:28.592Z,10.27
2018-06-04T06:22:55.977Z,9.40
2018-06-04T06:25:23.353Z,10.50
2018-06-04T06:27:50.752Z,9.17
2018-06-04T06:30:18.134Z,9.83
2018-06-04T06:32:45.512Z,8.93
2018-06-04T06:35:12.901Z,8.67
2018-06-04T06:37:40.318Z,7.57
2018-06-04T06:40:07.666Z,8.57
2018-06-04T06:42:35.053Z,8.43
2018-06-04T06:45:02.462Z,8.60
2018-06-04T06:47:29.871Z,8.40
2018-06-04T06:49:57.258Z,7.90
2018-06-04T06:52:24.649Z,9.13
2018-06-04T06:54:52.045Z,7.73
2018-06-04T06:57:19.424Z,7.47
2018-06-04T06:59:46.848Z,8.43
2018-06-04T07:02:14.235Z,8.20
2018-06-04T07:04:41.657Z,8.17
2018-06-04T07:07:09.051Z,7.97
2018-06-04T07:09:36.422Z,8.37
2018-06-04T07:12:03.822Z,8.37
2018-06-04T07:14:31.233Z,8.13
2018-06-04T07:16:58.625Z,7.97
2018-06-04T07:19:26.020Z,7.57
2018-06-04T07:21:53.417Z,7.90
2018-06-04T07:24:20.812Z,8.67
2018-06-04T07:26:48.243Z,8.03
2018-06-04T07:29:15.590Z,7.90
2018-06-04T07:31:42.993Z,7.43
2018-06-04T07:34:10.358Z,7.47
2018-06-04T07:36:37.752Z,7.90
2018-06-04T07:39:07.134Z,7.87
2018-06-04T07:41:34.562Z,7.60
2018-06-04T07:44:02.023Z,6.97
2018-06-04T07:46:29.389Z,7.73
2018-06-04T07:48:56.795Z,7.23
2018-06-04T07:51:24.213Z,7.43
2018-06-04T07:53:51.612Z,7.80
2018-06-04T07:56:19.034Z,7.53
2018-06-04T07:58:46.741Z,7.43
2018-06-04T08:01:14.142Z,7.67
2018-06-04T08:03:41.590Z,7.90
2018-06-04T08:06:09.006Z,8.47
2018-06-04T08:08:36.358Z,6.67
2018-06-04T08:11:03.758Z,7.10
2018-06-04T08:13:31.193Z,6.93
2018-06-04T08:15:58.619Z,7.70
2018-06-04T08:18:26.013Z,7.33
2018-06-04T08:20:53.414Z,6.73
2018-06-04T08:23:20.813Z,7.67
2018-06-04T08:25:48.197Z,8.00
2018-06-04T08:28:15.588Z,8.40
2018-06-04T08:30:42.974Z,7.53
2018-06-04T08:33:10.383Z,8.40
2018-06-04T08:35:37.772Z,8.13
2018-06-04T08:38:05.209Z,6.50
2018-06-04T08:40:32.585Z,8.50
2018-06-04T08:42:59.977Z,7.33
2018-06-04T08:45:27.394Z,7.93
2018-06-04T08:47:54.778Z,8.17
2018-06-04T08:50:22.175Z,7.33
2018-06-04T08:52:49.565Z,6.17
2018-06-04T08:55:16.958Z,7.77
2018-06-04T08:57:44.362Z,7.07
2018-06-04T09:00:11.772Z,7.07
2018-06-04T09:02:39.170Z,8.07
2018-06-04T09:05:06.603Z,7.70
2018-06-04T09:07:34.068Z,8.60
2018-06-04T09:10:01.494Z,7.30
2018-06-04T09:12:28.870Z,7.03
2018-06-04T09:14:56.263Z,5.70
2018-06-04T09:17:23.682Z,7.63
2018-06-04T09:19:51.080Z,7.07
2018-06-04T09:22:18.493Z,7.40
2018-06-04T09:24:45.881Z,5.50
2018-06-04T09:27:13.286Z,7.50
2018-06-04T09:29:40.648Z,7.00
2018-06-04T09:32:08.026Z,7.27
2018-06-04T09:34:35.426Z,7.00
2018-06-04T09:37:02.816Z,7.40
2018-06-04T09:39:30.224Z,7.13
2018-06-04T09:41:57.618Z,7.43
2018-06-04T09:44:25.023Z,7.27
2018-06-04T09:46:52.405Z,7.77
2018-06-04T09:49:19.804Z,7.77
2018-06-04T09:51:47.204Z,7.97
2018-06-04T09:54:14.610Z,8.00
2018-06-04T09:56:42.009Z,7.73
2018-06-04T09:59:10.102Z,6.83
2018-06-04T10:01:37.544Z,8.03
2018-06-04T10:04:04.909Z,8.50
2018-06-04T10:06:32.281Z,8.07
2018-06-04T10:08:59.681Z,7.77
2018-06-04T10:11:27.057Z,8.07
2018-06-04T10:13:54.453Z,8.30
2018-06-04T10:16:21.842Z,7.70
2018-06-04T10:18:49.249Z,8.17
2018-06-04T10:21:16.645Z,7.47
2018-06-04T10:23:44.033Z,6.10
2018-06-04T10:26:11.435Z,9.10
2018-06-04T10:28:38.846Z,9.30
2018-06-04T10:31:06.229Z,8.97
2018-06-04T10:33:33.664Z,9.20
2018-06-04T10:36:01.010Z,9.27
2018-06-04T10:38:28.381Z,8.77
2018-06-04T10:40:55.805Z,9.27
2018-06-04T10:43:23.209Z,9.70
2018-06-04T10:45:50.617Z,9.00
2018-06-04T10:48:18.023Z,8.83
2018-06-04T10:50:45.408Z,9.10
2018-06-04T10:53:12.804Z,9.27
2018-06-04T10:55:40.209Z,9.00
2018-06-04T10:58:07.605Z,9.43
2018-06-04T11:00:34.993Z,8.90
2018-06-04T11:03:02.402Z,8.87
2018-06-04T11:05:29.843Z,8.60
2018-06-04T11:07:57.238Z,9.10
2018-06-04T11:10:24.642Z,8.23
2018-06-04T11:12:52.050Z,8.27
2018-06-04T11:15:19.451Z,8.30
2018-06-04T11:17:46.862Z,8.43
2018-06-04T11:20:14.270Z,7.60
2018-06-04T11:22:41.702Z,8.47
2018-06-04T11:25:09.134Z,8.03
2018-06-04T11:27:36.494Z,7.70
2018-06-04T11:30:04.477Z,8.03
2018-06-04T11:32:31.864Z,8.23
2018-06-04T11:34:59.213Z,8.27
2018-06-04T11:37:26.620Z,9.40
2018-06-04T11:39:54.002Z,8.37
2018-06-04T11:42:21.389Z,8.90
2018-06-04T11:44:48.768Z,8.53
2018-06-04T11:47:16.159Z,8.73
2018-06-04T11:49:43.549Z,8.77
2018-06-04T11:52:11.025Z,8.27
2018-06-04T11:54:38.418Z,8.50
2018-06-04T11:57:05.827Z,8.83
2018-06-04T11:59:33.460Z,7.90
2018-06-04T12:02:00.849Z,8.43
2018-06-04T12:04:28.228Z,8.83
2018-06-04T12:06:55.632Z,8.07
2018-06-04T12:09:23.013Z,8.03
2018-06-04T12:11:50.445Z,7.90
2018-06-04T12:14:17.825Z,7.90
2018-06-04T12:16:45.260Z,7.30
2018-06-04T12:19:12.649Z,7.63
2018-06-04T12:21:40.029Z,8.50
2018-06-04T12:24:07.435Z,8.57
2018-06-04T12:26:34.800Z,8.03
2018-06-04T12:29:02.265Z,8.43
2018-06-04T12:31:29.670Z,8.27
2018-06-04T12:33:57.079Z,8.07
2018-06-04T12:36:24.483Z,8.00
2018-06-04T12:38:51.851Z,7.90
2018-06-04T12:41:19.254Z,8.13
2018-06-04T12:43:46.636Z,7.87
2018-06-04T12:46:14.022Z,8.40
2018-06-04T12:48:41.401Z,7.73
2018-06-04T12:51:08.798Z,7.73
2018-06-04T12:53:36.189Z,7.77
2018-06-04T12:56:03.589Z,8.30
2018-06-04T12:58:30.982Z,8.50
2018-06-04T13:00:58.392Z,8.10
2018-06-04T13:03:25.765Z,8.10
2018-06-04T13:05:53.161Z,8.27
2018-06-04T13:08:20.560Z,7.83
2018-06-04T13:10:47.973Z,8.40
2018-06-04T13:13:15.338Z,7.83
2018-06-04T13:15:42.802Z,8.37
2018-06-04T13:18:10.200Z,8.40
2018-06-04T13:20:37.585Z,7.57
2018-06-04T13:23:05.008Z,8.20
2018-06-04T13:25:32.422Z,7.67
2018-06-04T13:27:59.825Z,8.40
2018-06-04T13:30:27.201Z,8.03
2018-06-04T13:32:54.624Z,8.13
2018-06-04T13:35:22.006Z,7.90
2018-06-04T13:37:49.391Z,8.53
2018-06-04T13:40:16.800Z,7.90
2018-06-04T13:42:44.181Z,7.77
2018-06-04T13:45:11.573Z,7.80
2018-06-04T13:47:38.980Z,8.00
2018-06-04T13:50:06.601Z,8.17
2018-06-04T13:52:34.009Z,8.13
2018-06-04T13:55:01.397Z,7.60
2018-06-04T13:57:28.793Z,8.27
2018-06-04T13:59:56.944Z,7.80
2018-06-04T14:02:24.318Z,7.70
2018-06-04T14:04:51.706Z,8.07
2018-06-04T14:07:19.109Z,7.43
2018-06-04T14:09:46.501Z,7.27
2018-06-04T14:12:13.877Z,8.07
2018-06-04T14:14:41.273Z,7.70
2018-06-04T14:17:08.678Z,7.63
2018-06-04T14:19:36.097Z,7.70
2018-06-04T14:22:03.706Z,8.00
2018-06-04T14:24:31.108Z,8.03
2018-06-04T14:26:58.525Z,7.97
2018-06-04T14:29:25.934Z,8.17
2018-06-04T14:31:53.357Z,7.67
2018-06-04T14:34:20.736Z,7.20
2018-06-04T14:36:48.198Z,6.97
2018-06-04T14:39:15.571Z,7.57
2018-06-04T14:41:42.972Z,7.27
2018-06-04T14:44:10.370Z,7.20
2018-06-04T14:46:37.777Z,7.83
2018-06-04T14:49:05.187Z,7.57
2018-06-04T14:51:32.607Z,7.23
2018-06-04T14:54:00.008Z,7.70
2018-06-04T14:56:27.434Z,7.30
2018-06-04T14:58:54.808Z,7.70
2018-06-04T15:01:22.197Z,7.60
2018-06-04T15:03:49.597Z,8.00
2018-06-04T15:06:17.013Z,7.40
2018-06-04T15:08:44.409Z,7.70
2018-06-04T15:11:11.806Z,7.50
2018-06-04T15:13:39.204Z,7.00
2018-06-04T15:16:06.638Z,7.03
2018-06-04T15:18:34.046Z,7.90
2018-06-04T15:21:01.465Z,7.20
2018-06-04T15:23:28.857Z,6.60
2018-06-04T15:25:56.268Z,8.50
2018-06-04T15:28:23.652Z,7.33
2018-06-04T15:30:51.054Z,7.43
2018-06-04T15:33:18.444Z,7.50
2018-06-04T15:35:45.893Z,6.43
2018-06-04T15:38:13.294Z,7.17
2018-06-04T15:40:40.701Z,6.73
2018-06-04T15:43:08.106Z,7.60
2018-06-04T15:45:35.552Z,6.87
2018-06-04T15:48:02.928Z,7.70
2018-06-04T15:50:30.330Z,7.63
2018-06-04T15:52:57.717Z,8.20
2018-06-04T15:55:25.137Z,7.60
2018-06-04T15:57:52.525Z,7.43
2018-06-04T16:00:20.008Z,7.30
2018-06-04T16:02:47.428Z,7.57
2018-06-04T16:05:14.791Z,7.90
2018-06-04T16:07:42.150Z,8.00
2018-06-04T16:10:09.534Z,7.57
2018-06-04T16:12:36.950Z,7.80
2018-06-04T16:15:04.427Z,8.07
2018-06-04T16:17:31.842Z,8.40
2018-06-04T16:19:59.212Z,8.03
2018-06-04T16:22:26.602Z,8.00
2018-06-04T16:24:53.997Z,8.17
2018-06-04T16:27:21.408Z,8.40
2018-06-04T16:29:48.817Z,7.83
2018-06-04T16:32:16.214Z,8.03
2018-06-04T16:34:43.633Z,8.13
2018-06-04T16:37:11.013Z,8.53
2018-06-04T16:39:38.446Z,8.00
2018-06-04T16:42:05.809Z,7.93
2018-06-04T16:44:33.226Z,7.33
2018-06-04T16:47:00.633Z,8.07
2018-06-04T16:49:28.041Z,7.70
2018-06-04T16:51:55.424Z,7.87
2018-06-04T16:54:22.837Z,8.50
2018-06-04T16:56:50.233Z,8.13
2018-06-04T16:59:17.862Z,8.43
2018-06-04T17:01:45.217Z,7.80
2018-06-04T17:04:12.596Z,7.90
2018-06-04T17:06:39.984Z,8.17
2018-06-04T17:09:07.504Z,8.20
2018-06-04T17:11:34.945Z,8.07
2018-06-04T17:14:02.523Z,8.37
2018-06-04T17:16:29.937Z,8.53
2018-06-04T17:18:57.355Z,8.20
2018-06-04T17:21:24.779Z,8.00
2018-06-04T17:23:52.196Z,8.10
2018-06-04T17:26:19.666Z,7.50
2018-06-04T17:28:47.072Z,8.03
2018-06-04T17:31:14.469Z,7.37
2018-06-04T17:33:41.848Z,6.97
2018-06-04T17:36:09.249Z,7.20
2018-06-04T17:38:36.653Z,7.77
2018-06-04T17:41:04.069Z,7.40
2018-06-04T17:43:31.466Z,7.30
2018-06-04T17:45:58.885Z,7.53
2018-06-04T17:48:26.297Z,7.33
2018-06-04T17:50:53.681Z,7.67
2018-06-04T17:53:21.090Z,7.80
2018-06-04T17:55:48.473Z,7.83
2018-06-04T17:58:15.848Z,7.70
2018-06-04T18:00:43.428Z,7.63
2018-06-04T18:03:10.808Z,7.87
2018-06-04T18:05:38.214Z,7.43
2018-06-04T18:08:05.630Z,8.27
2018-06-04T18:10:33.037Z,7.60
2018-06-04T18:13:00.434Z,7.60
2018-06-04T18:15:27.833Z,7.40
2018-06-04T18:17:55.213Z,7.93
2018-06-04T18:20:22.641Z,7.60
2018-06-04T18:22:50.017Z,7.23
2018-06-04T18:25:17.414Z,8.10
2018-06-04T18:27:44.808Z,8.20
2018-06-04T18:30:12.189Z,9.07
2018-06-04T18:32:39.655Z,7.97
2018-06-04T18:35:07.065Z,8.17
2018-06-04T18:37:34.478Z,8.37
2018-06-04T18:40:02.009Z,8.13
2018-06-04T18:42:29.415Z,8.70
2018-06-04T18:44:56.834Z,8.37
2018-06-04T18:47:24.279Z,8.43
2018-06-04T18:49:51.697Z,8.33
2018-06-04T18:52:19.080Z,8.50
2018-06-04T18:54:46.498Z,8.67
2018-06-04T18:57:13.889Z,8.83
2018-06-04T18:59:41.328Z,8.37
2018-06-04T19:02:08.726Z,8.63
2018-06-04T19:04:36.137Z,8.30
2018-06-04T19:07:03.546Z,8.80
2018-06-04T19:09:30.941Z,8.70
2018-06-04T19:11:58.365Z,8.97
2018-06-04T19:14:25.757Z,9.23
2018-06-04T19:16:53.177Z,8.37
2018-06-04T19:19:20.579Z,8.60
2018-06-04T19:21:47.976Z,8.90
2018-06-04T19:24:15.364Z,8.77
2018-06-04T19:26:42.776Z,9.17
2018-06-04T19:29:10.177Z,8.53
2018-06-04T19:31:37.595Z,8.87
2018-06-04T19:34:05.249Z,8.67
2018-06-04T19:36:32.664Z,8.30
2018-06-04T19:39:00.065Z,7.87
2018-06-04T19:41:27.508Z,6.77
2018-06-04T19:43:54.942Z,5.57
2018-06-04T19:46:22.456Z,5.00
2018-06-04T19:48:49.883Z,4.63
2018-06-04T19:51:17.298Z,4.20
2018-06-04T19:53:44.711Z,3.70
2018-06-04T19:56:12.117Z,3.67
2018-06-04T19:58:39.526Z,3.10
2018-06-04T20:01:07.828Z,2.93
2018-06-04T20:03:35.214Z,3.07
2018-06-04T20:06:02.613Z,2.63
2018-06-04T20:08:30.040Z,2.60
2018-06-04T20:10:57.418Z,2.60
2018-06-04T20:13:24.850Z,2.43
2018-06-04T20:15:52.245Z,2.00
2018-06-04T20:18:19.631Z,1.93
2018-06-04T20:20:47.041Z,1.93
2018-06-04T20:23:14.457Z,2.00
2018-06-04T20:25:41.892Z,2.03
2018-06-04T20:28:09.317Z,2.00
2018-06-04T20:30:36.726Z,1.90
2018-06-04T20:33:04.194Z,1.97
2018-06-04T20:35:31.572Z,1.93
2018-06-04T20:37:58.970Z,1.77
2018-06-04T20:40:26.353Z,2.00
2018-06-04T20:42:53.752Z,1.73
2018-06-04T20:45:21.142Z,1.53
2018-06-04T20:47:48.539Z,1.50
2018-06-04T20:50:15.985Z,1.40
2018-06-04T20:52:43.398Z,1.50
2018-06-04T20:55:10.843Z,1.47
2018-06-04T20:57:38.270Z,1.60
2018-06-04T21:00:05.762Z,1.40
2018-06-04T21:02:33.149Z,1.30
2018-06-04T21:05:00.551Z,1.60
2018-06-04T21:07:28.149Z,1.30
2018-06-04T21:09:55.560Z,1.30
2018-06-04T21:12:22.987Z,1.23
2018-06-04T21:14:50.477Z,1.47
2018-06-04T21:17:17.869Z,1.47
2018-06-04T21:19:45.272Z,1.60
2018-06-04T21:22:12.690Z,1.70
2018-06-04T21:24:40.093Z,1.30
2018-06-04T21:27:07.482Z,1.50
2018-06-04T21:29:34.917Z,1.50
2018-06-04T21:32:02.332Z,1.40
2018-06-04T21:34:29.775Z,1.50
2018-06-04T21:36:57.140Z,1.50
2018-06-04T21:39:24.532Z,1.40
2018-06-04T21:41:51.930Z,1.60
2018-06-04T21:44:19.312Z,1.30
2018-06-04T21:46:46.745Z,1.40
2018-06-04T21:49:19.411Z,1.60
2018-06-04T21:51:47.085Z,1.70
2018-06-04T21:54:14.497Z,1.60
2018-06-04T21:56:41.881Z,1.77
2018-06-04T21:59:09.340Z,1.60
2018-06-04T22:01:37.201Z,1.60
2018-06-04T22:04:04.720Z,1.57
2018-06-04T22:06:32.102Z,1.40
2018-06-04T22:08:59.536Z,1.80
2018-06-04T22:11:26.940Z,1.70
2018-06-04T22:13:54.357Z,1.60
2018-06-04T22:16:21.751Z,1.80
2018-06-04T22:18:49.163Z,1.80
2018-06-04T22:21:16.589Z,2.00
2018-06-04T22:23:43.985Z,1.73
2018-06-04T22:26:11.359Z,2.00
2018-06-04T22:28:38.761Z,1.93
2018-06-04T22:31:06.190Z,1.70
2018-06-04T22:33:33.621Z,1.73
2018-06-04T22:36:01.058Z,1.80
2018-06-04T22:38:28.485Z,1.87
2018-06-04T22:40:55.905Z,2.00
2018-06-04T22:43:23.334Z,2.03
2018-06-04T22:45:50.719Z,1.97
2018-06-04T22:48:18.108Z,1.87
2018-06-04T22:50:45.511Z,2.40
2018-06-04T22:53:12.913Z,2.10
2018-06-04T22:55:40.322Z,1.97
2018-06-04T22:58:07.726Z,2.00
2018-06-04T23:00:35.138Z,2.07
2018-06-04T23:03:02.905Z,2.20
2018-06-04T23:05:30.325Z,2.20
2018-06-04T23:07:57.721Z,2.00
2018-06-04T23:10:25.165Z,2.13
2018-06-04T23:12:52.566Z,2.20
2018-06-04T23:15:19.962Z,2.20
2018-06-04T23:17:47.393Z,2.23
2018-06-04T23:20:14.797Z,1.87
2018-06-04T23:22:42.207Z,1.70
2018-06-04T23:25:09.560Z,1.70
2018-06-04T23:27:36.944Z,1.83
2018-06-04T23:30:04.357Z,1.40
2018-06-04T23:32:31.774Z,1.90
2018-06-04T23:34:59.193Z,1.83
2018-06-04T23:37:26.630Z,1.90
2018-06-04T23:39:54.009Z,1.70
2018-06-04T23:42:21.414Z,2.10
2018-06-04T23:44:48.787Z,1.80
2018-06-04T23:47:16.214Z,1.33
2018-06-04T23:49:43.618Z,1.83
2018-06-04T23:52:11.033Z,1.60
2018-06-04T23:54:38.428Z,1.53
2018-06-04T23:57:05.806Z,1.80
2018-06-04T23:59:33.267Z,1.57
